Time;durP1;ratioP1;P1;durP2;ratioP2;P2;SDS_P1;SDS_P2;PMS_P1;PMS_P2;Temp;Humidity;BMP_temperature;BMP_pressure;BME280_temperature;BME280_humidity;BME280_pressure;Samples;Min_cycle;Max_cycle;Signal;HPM_P1;HPM_P2
2022/08/23 00:01:13;;;;;;;10.20;4.50;;;17.80;99.90;;;;;;5070863;28;20096;-76
2022/08/23 00:03:39;;;;;;;9.98;3.90;;;17.70;99.90;;;;;;5085828;28;20075;-75
2022/08/23 00:06:06;;;;;;;14.13;4.68;;;17.70;99.90;;;;;;5071574;28;20112;-76
2022/08/23 00:08:35;;;;;;;9.68;4.13;;;17.80;99.90;;;;;;5073637;28;20043;-76
2022/08/23 00:11:01;;;;;;;10.93;4.68;;;17.60;99.90;;;;;;5087131;28;20051;-78
2022/08/23 00:13:27;;;;;;;11.40;4.40;;;17.60;99.90;;;;;;5089043;28;20067;-75
2022/08/23 00:15:54;;;;;;;15.88;5.10;;;17.60;99.90;;;;;;5071357;28;20050;-76
2022/08/23 00:18:20;;;;;;;15.30;5.10;;;17.50;99.90;;;;;;5083962;28;22447;-75
2022/08/23 00:20:47;;;;;;;9.48;4.28;;;17.50;99.90;;;;;;5088323;28;20389;-76
2022/08/23 00:23:13;;;;;;;13.60;4.68;;;17.50;99.90;;;;;;5085459;28;20056;-76
2022/08/23 00:25:39;;;;;;;11.05;4.30;;;17.40;99.90;;;;;;5082978;28;20461;-75
2022/08/23 00:28:05;;;;;;;12.52;4.38;;;17.30;99.90;;;;;;5066557;28;20147;-76
2022/08/23 00:30:30;;;;;;;10.52;4.55;;;17.30;99.90;;;;;;5066261;28;20041;-75
2022/08/23 00:32:56;;;;;;;13.27;4.25;;;17.30;99.90;;;;;;5067948;28;20502;-75
2022/08/23 00:35:22;;;;;;;12.93;5.28;;;17.20;99.90;;;;;;5068681;28;20411;-75
2022/08/23 00:37:48;;;;;;;9.55;4.25;;;17.20;99.90;;;;;;5081338;28;20036;-76
2022/08/23 00:40:17;;;;;;;10.00;4.40;;;17.10;99.90;;;;;;5081739;28;20039;-75
2022/08/23 00:48:38;;;;;;;15.85;4.82;;;17.10;99.90;;;;;;5078710;28;20036;-75
2022/08/23 00:51:13;;;;;;;15.95;4.22;;;17.00;99.90;;;;;;5084515;28;20044;-75
2022/08/23 00:53:43;;;;;;;11.70;4.63;;;16.90;99.90;;;;;;5083967;28;20054;-77
2022/08/23 00:56:12;;;;;;;13.00;4.15;;;16.90;99.90;;;;;;5069910;28;20075;-76
2022/08/23 00:58:38;;;;;;;9.60;4.30;;;16.80;99.90;;;;;;5068432;28;20036;-76
2022/08/23 01:01:06;;;;;;;10.20;3.80;;;16.90;99.90;;;;;;5072670;28;20055;-74
2022/08/23 01:03:38;;;;;;;11.15;4.38;;;16.80;99.90;;;;;;5085470;28;20051;-75
2022/08/23 01:06:25;;;;;;;11.65;4.45;;;16.80;99.90;;;;;;5085986;28;20106;-76
2022/08/23 01:08:57;;;;;;;13.93;5.30;;;16.80;99.90;;;;;;5082050;28;20105;-75
2022/08/23 01:11:32;;;;;;;9.00;4.20;;;16.70;99.90;;;;;;5067547;28;20063;-74
2022/08/23 01:14:18;;;;;;;12.55;3.92;;;16.70;99.90;;;;;;5080822;28;22232;-75
2022/08/23 01:17:19;;;;;;;10.85;4.50;;;16.70;99.90;;;;;;5084959;28;20059;-75
2022/08/23 01:19:53;;;;;;;13.15;4.13;;;16.70;99.90;;;;;;5062596;28;20083;-75
2022/08/23 01:22:40;;;;;;;7.30;3.85;;;16.60;99.90;;;;;;5084856;28;20119;-76
2022/08/23 01:25:11;;;;;;;10.57;4.22;;;16.60;99.90;;;;;;5069502;28;21972;-75
2022/08/23 01:27:37;;;;;;;13.45;4.43;;;16.50;99.90;;;;;;5073460;28;20039;-75
2022/08/23 01:30:07;;;;;;;10.98;4.03;;;16.50;99.90;;;;;;5068454;28;20035;-76
2022/08/23 01:32:39;;;;;;;12.80;4.70;;;16.50;99.90;;;;;;5083877;28;20063;-74
2022/08/23 01:35:06;;;;;;;7.03;3.95;;;16.50;99.90;;;;;;5069589;28;20036;-75
2022/08/23 01:37:35;;;;;;;10.40;4.65;;;16.40;99.90;;;;;;5067950;28;20043;-75
2022/08/23 01:40:05;;;;;;;8.73;3.85;;;16.40;99.90;;;;;;5068813;28;20114;-75
2022/08/23 01:42:30;;;;;;;10.32;4.07;;;16.40;99.90;;;;;;5087393;28;20036;-76
2022/08/23 01:44:57;;;;;;;10.35;4.30;;;16.30;99.90;;;;;;5067986;28;20139;-75
2022/08/23 01:47:23;;;;;;;9.52;4.15;;;16.30;99.90;;;;;;5085962;28;20217;-75
2022/08/23 01:49:48;;;;;;;8.85;4.25;;;16.30;99.90;;;;;;5085933;28;20536;-74
2022/08/23 01:52:14;;;;;;;11.30;5.22;;;16.20;99.90;;;;;;5084666;28;20032;-75
2022/08/23 01:54:40;;;;;;;10.75;4.82;;;16.20;99.90;;;;;;5084764;28;20036;-75
2022/08/23 01:57:07;;;;;;;11.48;5.00;;;16.30;99.90;;;;;;5065830;28;20073;-75
2022/08/23 01:59:33;;;;;;;13.10;6.03;;;16.30;99.90;;;;;;5068144;28;20071;-76
2022/08/23 02:01:59;;;;;;;15.90;5.22;;;16.30;99.90;;;;;;5082241;28;20070;-75
2022/08/23 02:04:26;;;;;;;11.50;5.20;;;16.30;99.90;;;;;;5084825;28;20039;-74
2022/08/23 02:06:52;;;;;;;10.90;5.43;;;16.30;99.90;;;;;;5067834;28;20039;-76
2022/08/23 02:09:17;;;;;;;10.93;5.07;;;16.20;99.90;;;;;;5070205;28;20534;-76
2022/08/23 02:11:45;;;;;;;8.48;5.10;;;16.20;99.90;;;;;;5068457;28;20398;-74
2022/08/23 02:14:17;;;;;;;13.95;6.00;;;16.20;99.90;;;;;;5084115;28;20614;-76
2022/08/23 02:16:52;;;;;;;14.00;6.10;;;16.20;99.90;;;;;;5069134;28;20103;-76
2022/08/23 02:19:19;;;;;;;;;;;16.20;99.90;;;;;;5070918;28;20104;-76
2022/08/23 02:21:45;;;;;;;11.13;4.82;;;16.20;99.90;;;;;;5088909;28;20026;-75
2022/08/23 02:24:18;;;;;;;11.10;5.15;;;16.10;99.90;;;;;;5090256;28;20044;-75
2022/08/23 02:26:48;;;;;;;13.38;6.10;;;16.10;99.90;;;;;;5072703;28;20040;-75
2022/08/23 02:29:15;;;;;;;15.65;5.00;;;16.10;99.90;;;;;;5086278;28;20063;-74
2022/08/23 02:31:43;;;;;;;13.60;5.88;;;16.10;99.90;;;;;;5079417;28;20036;-75
2022/08/23 02:34:10;;;;;;;11.85;5.03;;;16.10;99.90;;;;;;5066601;28;20032;-75
2022/08/23 02:36:36;;;;;;;16.55;5.88;;;16.10;99.90;;;;;;5080508;28;20036;-77
2022/08/23 02:39:03;;;;;;;12.80;5.45;;;16.10;99.90;;;;;;5080139;28;20115;-76
2022/08/23 02:41:37;;;;;;;12.73;6.57;;;16.10;99.90;;;;;;5083337;28;20109;-76
2022/08/23 02:44:03;;;;;;;11.63;5.15;;;16.10;99.90;;;;;;5059764;28;20051;-75
2022/08/23 02:46:33;;;;;;;11.88;5.63;;;16.00;99.90;;;;;;5082204;28;20052;-77
2022/08/23 02:48:59;;;;;;;13.43;6.60;;;16.00;99.90;;;;;;5081725;28;20487;-75
2022/08/23 02:51:25;;;;;;;11.57;6.03;;;15.90;99.90;;;;;;5081411;28;20047;-75
2022/08/23 02:53:50;;;;;;;11.48;6.50;;;16.10;99.90;;;;;;5082235;28;20060;-74
2022/08/23 02:56:16;;;;;;;11.13;5.97;;;16.00;99.90;;;;;;5061874;28;20095;-77
2022/08/23 02:58:44;;;;;;;13.15;6.43;;;16.00;99.90;;;;;;5062134;28;20059;-76
2022/08/23 03:01:19;;;;;;;11.52;6.65;;;16.00;99.90;;;;;;5077346;28;21418;-75
2022/08/23 03:03:44;;;;;;;11.55;6.43;;;16.00;99.90;;;;;;5078789;28;20040;-76
2022/08/23 03:06:12;;;;;;;11.15;6.22;;;15.90;99.90;;;;;;5061196;28;20039;-75
2022/08/23 03:08:37;;;;;;;12.68;6.70;;;15.90;99.90;;;;;;5060561;28;20135;-76
2022/08/23 03:11:19;;;;;;;15.15;7.65;;;15.90;99.90;;;;;;5063452;28;20189;-75
2022/08/23 03:13:45;;;;;;;12.40;6.82;;;15.90;99.90;;;;;;5078771;28;20118;-75
2022/08/23 03:16:11;;;;;;;13.40;6.00;;;15.80;99.90;;;;;;5046164;28;20119;-76
2022/08/23 03:18:38;;;;;;;12.10;6.30;;;15.80;99.90;;;;;;5064588;28;20047;-74
2022/08/23 03:21:06;;;;;;;15.43;7.50;;;15.80;99.90;;;;;;5058658;28;20051;-75
2022/08/23 03:23:35;;;;;;;13.63;6.97;;;15.80;99.90;;;;;;5065947;28;20059;-75
2022/08/23 03:26:04;;;;;;;19.58;8.93;;;15.80;99.90;;;;;;5081351;28;20032;-75
2022/08/23 03:28:32;;;;;;;17.65;8.30;;;15.80;99.90;;;;;;5046339;28;20039;-76
2022/08/23 03:30:57;;;;;;;16.83;9.80;;;15.80;99.90;;;;;;5060107;28;20044;-77
2022/08/23 03:33:23;;;;;;;15.23;8.00;;;15.90;99.90;;;;;;5064588;28;20463;-75
2022/08/23 03:35:49;;;;;;;14.68;7.85;;;15.90;99.90;;;;;;5079582;28;20483;-75
2022/08/23 03:38:16;;;;;;;23.63;11.10;;;15.80;99.90;;;;;;5063945;28;20051;-73
2022/08/23 03:44:23;;;;;;;20.95;11.15;;;15.80;99.90;;;;;;5088178;28;20035;-74
2022/08/23 03:46:50;;;;;;;14.23;8.95;;;15.80;99.90;;;;;;5087395;28;20044;-74
2022/08/23 03:49:16;;;;;;;14.65;9.18;;;15.80;99.90;;;;;;5063771;28;20085;-75
2022/08/23 03:51:41;;;;;;;13.30;8.25;;;15.80;99.90;;;;;;5063610;28;20044;-76
2022/08/23 03:54:07;;;;;;;22.90;11.93;;;15.70;99.90;;;;;;5067636;28;20055;-75
2022/08/23 03:56:38;;;;;;;19.42;10.68;;;15.80;99.90;;;;;;5069119;28;20065;-76
2022/08/23 03:59:07;;;;;;;16.25;10.18;;;15.70;99.90;;;;;;5081734;28;20048;-75
2022/08/23 04:01:34;;;;;;;21.08;10.55;;;15.70;99.90;;;;;;5066458;28;20032;-76
2022/08/23 04:03:59;;;;;;;15.15;10.13;;;15.70;99.90;;;;;;5081444;28;20028;-76
2022/08/23 04:06:27;;;;;;;22.92;12.02;;;15.70;99.90;;;;;;5062836;28;20047;-76
2022/08/23 04:08:53;;;;;;;23.42;12.95;;;15.70;99.90;;;;;;5065632;28;20516;-76
2022/08/23 04:11:20;;;;;;;16.75;10.18;;;15.70;99.90;;;;;;5067539;28;20446;-76
2022/08/23 04:13:48;;;;;;;26.05;11.63;;;15.70;99.90;;;;;;5079266;28;20044;-75
2022/08/23 04:16:14;;;;;;;21.02;12.10;;;15.80;99.90;;;;;;5082073;28;20041;-76
2022/08/23 04:18:40;;;;;;;18.88;10.88;;;15.80;99.90;;;;;;5067883;28;20044;-76
2022/08/23 04:21:12;;;;;;;20.42;11.40;;;15.70;99.90;;;;;;5079195;28;20035;-77
2022/08/23 04:23:39;;;;;;;24.35;12.35;;;15.60;99.90;;;;;;5045673;28;20036;-75
2022/08/23 04:26:06;;;;;;;20.45;11.88;;;15.60;99.90;;;;;;5047419;28;20079;-76
2022/08/23 04:28:33;;;;;;;15.30;10.70;;;15.60;99.90;;;;;;5063876;28;20502;-76
2022/08/23 04:31:00;;;;;;;15.95;9.82;;;15.60;99.90;;;;;;5049899;28;20031;-76
2022/08/23 04:33:30;;;;;;;16.80;10.82;;;15.50;99.90;;;;;;5050038;28;20471;-75
2022/08/23 04:35:56;;;;;;;17.08;9.80;;;15.50;99.90;;;;;;5067563;28;20496;-77
2022/08/23 04:38:22;;;;;;;16.73;10.43;;;15.50;99.90;;;;;;5065534;28;20044;-75
2022/08/23 04:43:50;;;;;;;20.65;11.98;;;15.50;99.90;;;;;;5065847;28;20242;-75
2022/08/23 04:46:16;;;;;;;21.27;13.20;;;15.50;99.90;;;;;;5053842;28;20159;-75
2022/08/23 04:48:43;;;;;;;21.52;11.35;;;15.60;99.90;;;;;;5069199;28;20425;-76
2022/08/23 04:51:09;;;;;;;25.42;15.98;;;15.60;99.90;;;;;;5048577;28;20043;-76
2022/08/23 04:53:35;;;;;;;30.77;19.33;;;15.60;99.90;;;;;;5066347;28;20118;-77
2022/08/23 04:56:22;;;;;;;36.95;20.00;;;15.80;99.90;;;;;;5050413;28;20143;-75
2022/08/23 04:58:48;;;;;;;34.30;17.95;;;15.90;99.90;;;;;;5046621;28;20094;-75
2022/08/23 05:01:15;;;;;;;31.85;18.73;;;16.00;99.90;;;;;;5051797;28;20036;-76
2022/08/23 05:03:41;;;;;;;27.35;18.58;;;16.10;99.90;;;;;;5052661;28;20141;-75
2022/08/23 05:06:07;;;;;;;29.00;19.45;;;16.10;99.90;;;;;;5052196;28;20159;-80
2022/08/23 05:08:36;;;;;;;35.25;19.40;;;16.20;99.90;;;;;;5064194;28;20040;-80
2022/08/23 05:11:07;;;;;;;29.20;18.85;;;16.30;99.90;;;;;;5079623;28;20757;-78
2022/08/23 05:13:33;;;;;;;35.78;19.13;;;16.30;99.90;;;;;;5048895;28;20039;-77
2022/08/23 05:15:59;;;;;;;34.38;18.95;;;16.40;99.90;;;;;;5048119;28;20130;-76
2022/08/23 05:18:25;;;;;;;29.73;18.77;;;16.50;99.90;;;;;;5064175;28;20126;-78
2022/08/23 05:20:52;;;;;;;30.30;17.08;;;16.50;99.90;;;;;;5056145;28;20044;-77
2022/08/23 05:23:18;;;;;;;28.63;17.58;;;16.60;99.90;;;;;;5074046;27;20052;-77
2022/08/23 05:25:49;;;;;;;27.17;17.55;;;16.60;99.90;;;;;;5071074;28;20042;-77
2022/08/23 05:28:21;;;;;;;25.17;16.80;;;16.70;99.90;;;;;;5084997;28;20458;-77
2022/08/23 05:30:57;;;;;;;24.95;17.40;;;16.80;99.90;;;;;;5086411;28;20036;-79
2022/08/23 05:33:23;;;;;;;26.60;16.77;;;16.80;99.90;;;;;;5105043;28;20522;-77
2022/08/23 05:35:49;;;;;;;29.05;16.27;;;16.80;99.90;;;;;;5086979;28;20197;-77
2022/08/23 05:38:14;;;;;;;28.17;16.00;;;16.80;99.90;;;;;;5067523;28;20040;-76
2022/08/23 05:41:18;;;;;;;25.40;16.10;;;16.80;99.90;;;;;;5070551;28;20048;-78
2022/08/23 05:43:44;;;;;;;23.35;14.77;;;16.90;99.90;;;;;;5102214;28;20031;-76
2022/08/23 05:46:13;;;;;;;22.65;15.25;;;16.90;99.90;;;;;;5069541;28;20035;-76
2022/08/23 05:48:42;;;;;;;22.67;14.70;;;16.90;99.90;;;;;;5083230;28;20134;-79
2022/08/23 05:51:29;;;;;;;22.33;14.18;;;16.90;99.90;;;;;;5071107;28;20478;-77
2022/08/23 05:53:59;;;;;;;29.13;15.57;;;17.00;99.90;;;;;;5087124;28;20034;-77
2022/08/23 05:56:37;;;;;;;18.27;14.02;;;17.10;99.90;;;;;;5053736;28;20047;-76
2022/08/23 05:59:06;;;;;;;25.95;14.20;;;17.20;99.90;;;;;;5069508;28;20039;-77
2022/08/23 06:01:33;;;;;;;20.77;13.52;;;17.20;99.90;;;;;;5088520;28;20032;-78
2022/08/23 06:04:04;;;;;;;23.20;13.15;;;17.40;99.90;;;;;;5072203;28;20031;-78
2022/08/23 06:06:30;;;;;;;23.48;13.68;;;17.50;99.90;;;;;;5081196;28;20058;-77
2022/08/23 06:08:57;;;;;;;27.60;13.50;;;17.60;99.90;;;;;;5084716;28;20078;-77
2022/08/23 06:11:26;;;;;;;24.33;12.77;;;17.60;99.90;;;;;;5075386;28;20088;-76
2022/08/23 06:13:57;;;;;;;20.70;13.45;;;17.50;99.90;;;;;;5079379;28;20039;-76
2022/08/23 06:16:29;;;;;;;21.15;12.55;;;17.60;99.90;;;;;;5084449;28;20048;-76
2022/08/23 06:18:56;;;;;;;18.08;12.48;;;17.70;99.90;;;;;;5082389;28;20371;-77
2022/08/23 06:21:23;;;;;;;20.83;12.65;;;17.70;99.90;;;;;;5105529;28;20043;-76
2022/08/23 06:23:49;;;;;;;24.92;13.02;;;17.70;99.90;;;;;;5086758;28;20040;-76
2022/08/23 06:26:17;;;;;;;21.25;12.65;;;17.70;99.90;;;;;;5083396;28;20048;-76
2022/08/23 06:28:45;;;;;;;21.05;12.23;;;17.80;99.90;;;;;;5082092;28;20479;-76
2022/08/23 06:31:11;;;;;;;16.30;12.25;;;17.90;99.90;;;;;;5086813;28;20046;-77
2022/08/23 06:33:40;;;;;;;18.52;12.70;;;17.90;99.90;;;;;;5068939;28;20047;-76
2022/08/23 06:36:09;;;;;;;19.23;12.10;;;18.00;99.90;;;;;;5076105;28;20036;-77
2022/08/23 06:38:35;;;;;;;19.98;11.68;;;18.10;99.90;;;;;;5081958;28;20050;-75
2022/08/23 06:41:06;;;;;;;22.15;11.68;;;18.20;99.90;;;;;;5068597;28;20046;-78
2022/08/23 06:43:32;;;;;;;17.20;11.13;;;18.30;99.90;;;;;;5065038;28;20383;-76
2022/08/23 06:46:09;;;;;;;26.13;11.43;;;18.30;99.90;;;;;;5065732;28;20044;-75
2022/08/23 06:48:35;;;;;;;17.48;11.00;;;18.50;99.90;;;;;;5088012;28;20035;-73
2022/08/23 06:51:11;;;;;;;15.93;10.35;;;18.50;99.90;;;;;;5075534;28;20031;-75
2022/08/23 06:53:37;;;;;;;15.80;9.52;;;18.60;99.90;;;;;;5076780;28;20116;-75
2022/08/23 06:56:03;;;;;;;19.63;9.43;;;18.70;99.90;;;;;;5064983;28;20048;-76
2022/08/23 06:58:29;;;;;;;13.40;8.90;;;18.80;99.90;;;;;;5078994;28;20079;-77
2022/08/23 07:00:55;;;;;;;15.32;9.07;;;18.90;99.90;;;;;;5078914;28;20082;-75
2022/08/23 07:03:20;;;;;;;17.17;8.90;;;19.00;99.90;;;;;;5073921;28;20043;-76
2022/08/23 07:05:46;;;;;;;15.35;8.02;;;19.10;99.90;;;;;;5076664;28;20175;-75
2022/08/23 07:08:12;;;;;;;13.18;7.72;;;19.20;99.90;;;;;;5078424;28;20100;-77
2022/08/23 07:10:37;;;;;;;12.27;7.45;;;19.30;99.90;;;;;;5076191;28;20047;-76
2022/08/23 07:13:03;;;;;;;9.88;7.47;;;19.30;99.90;;;;;;5059930;28;20043;-76
2022/08/23 07:15:28;;;;;;;10.95;7.15;;;19.40;99.90;;;;;;5079585;28;20055;-75
2022/08/23 07:17:55;;;;;;;16.55;7.85;;;19.40;99.90;;;;;;5080439;28;20059;-75
2022/08/23 07:20:20;;;;;;;14.00;7.35;;;19.50;99.90;;;;;;5063972;28;20134;-74
2022/08/23 07:22:46;;;;;;;12.15;7.35;;;19.50;99.90;;;;;;5077292;28;20578;-76
2022/08/23 07:25:12;;;;;;;14.25;7.68;;;19.60;99.90;;;;;;5088309;28;20114;-76
2022/08/23 07:27:37;;;;;;;10.77;6.53;;;19.60;99.90;;;;;;5083358;28;20060;-75
2022/08/23 07:30:04;;;;;;;8.48;5.63;;;19.80;99.90;;;;;;5063270;28;20883;-77
2022/08/23 07:32:30;;;;;;;15.82;7.18;;;19.80;99.90;;;;;;5077617;28;20044;-75
2022/08/23 07:34:55;;;;;;;17.73;6.80;;;19.80;99.90;;;;;;5063114;28;20048;-74
2022/08/23 07:37:21;;;;;;;10.50;6.57;;;19.90;99.90;;;;;;5078097;28;20525;-75
2022/08/23 07:39:47;;;;;;;12.82;6.00;;;20.00;99.90;;;;;;5079297;28;20098;-75
2022/08/23 07:42:13;;;;;;;19.60;5.80;;;20.00;99.90;;;;;;5058598;28;20405;-76
2022/08/23 07:44:38;;;;;;;11.57;5.90;;;20.10;99.90;;;;;;5065745;28;20047;-77
2022/08/23 07:47:04;;;;;;;10.60;6.20;;;20.10;99.90;;;;;;5062037;28;20074;-75
2022/08/23 07:49:30;;;;;;;12.95;5.35;;;20.20;99.90;;;;;;5058513;28;20490;-78
2022/08/23 07:51:57;;;;;;;7.03;5.00;;;20.30;99.90;;;;;;5079229;28;20419;-76
2022/08/23 07:54:24;;;;;;;10.10;4.97;;;20.40;99.90;;;;;;5085562;28;20355;-77
2022/08/23 07:56:50;;;;;;;8.65;5.10;;;20.60;99.90;;;;;;5064248;28;20036;-77
2022/08/23 07:59:16;;;;;;;10.10;4.95;;;20.60;99.90;;;;;;5060407;28;20040;-78
2022/08/23 08:01:43;;;;;;;9.15;4.82;;;20.70;99.90;;;;;;5083468;28;20040;-79
2022/08/23 08:04:09;;;;;;;8.20;4.80;;;20.70;99.90;;;;;;5084167;28;20047;-78
2022/08/23 08:06:42;;;;;;;16.85;4.90;;;20.80;99.90;;;;;;5088164;28;20043;-75
2022/08/23 08:09:09;;;;;;;9.70;4.65;;;20.90;99.90;;;;;;5088323;28;20051;-73
2022/08/23 08:11:35;;;;;;;12.70;4.65;;;21.00;99.90;;;;;;5089341;28;20245;-76
2022/08/23 08:14:06;;;;;;;12.75;4.95;;;21.10;99.90;;;;;;5087190;28;20044;-76
2022/08/23 08:16:45;;;;;;;12.93;4.57;;;21.20;99.90;;;;;;5086309;28;20051;-74
2022/08/23 08:19:14;;;;;;;7.93;4.32;;;21.30;99.90;;;;;;5068703;27;20114;-76
2022/08/23 08:21:40;;;;;;;9.50;4.40;;;21.40;99.90;;;;;;5083457;28;20162;-73
2022/08/23 08:24:12;;;;;;;9.45;4.20;;;21.50;99.90;;;;;;5088339;27;20047;-74
2022/08/23 08:26:38;;;;;;;13.60;3.92;;;21.50;99.90;;;;;;5089794;27;20108;-73
2022/08/23 08:29:05;;;;;;;13.43;4.40;;;21.60;99.90;;;;;;5066347;28;20159;-74
2022/08/23 08:31:35;;;;;;;19.25;4.80;;;21.70;99.90;;;;;;5084345;28;20047;-74
2022/08/23 08:34:00;;;;;;;15.07;4.03;;;21.80;99.90;;;;;;5082378;28;20391;-75
2022/08/23 08:36:39;;;;;;;7.43;4.25;;;21.90;99.90;;;;;;5090440;28;20048;-74
2022/08/23 08:39:07;;;;;;;7.18;3.67;;;22.20;99.90;;;;;;5064758;28;20069;-74
2022/08/23 08:42:04;;;;;;;13.65;4.10;;;22.50;99.90;;;;;;5082489;28;20126;-75
2022/08/23 08:44:51;;;;;;;6.03;3.50;;;22.60;99.90;;;;;;5085910;28;20036;-73
2022/08/23 08:47:20;;;;;;;14.95;3.97;;;22.70;99.90;;;;;;5081790;28;20055;-73
2022/08/23 08:49:56;;;;;;;21.50;4.30;;;22.90;99.90;;;;;;5070136;28;20063;-74
2022/08/23 08:52:35;;;;;;;24.88;3.75;;;23.00;99.90;;;;;;5082189;28;20059;-74
2022/08/23 08:55:16;;;;;;;13.40;3.30;;;23.10;99.90;;;;;;5083623;28;20047;-75
2022/08/23 08:57:44;;;;;;;35.13;4.82;;;23.30;99.90;;;;;;5084453;28;20488;-76
2022/08/23 09:00:22;;;;;;;180.73;12.45;;;23.40;99.90;;;;;;5072417;27;20437;-75
2022/08/23 09:02:47;;;;;;;71.40;6.90;;;23.60;99.90;;;;;;5074132;28;20478;-77
2022/08/23 09:05:26;;;;;;;39.60;4.82;;;23.70;99.90;;;;;;5088831;28;20050;-75
2022/08/23 09:08:07;;;;;;;30.17;4.05;;;23.70;99.90;;;;;;5086953;28;20039;-76
2022/08/23 09:10:51;;;;;;;14.77;3.47;;;23.90;99.90;;;;;;5089526;28;20042;-75
2022/08/23 09:13:44;;;;;;;387.40;29.88;;;24.00;99.90;;;;;;5071165;28;20108;-76
2022/08/23 09:16:38;;;;;;;19.13;4.00;;;24.20;99.90;;;;;;5074541;28;20044;-78
2022/08/23 09:19:05;;;;;;;8.88;3.15;;;24.20;99.90;;;;;;5086777;28;20087;-79
2022/08/23 09:21:46;;;;;;;8.23;3.30;;;24.20;99.90;;;;;;5063041;28;20043;-79
2022/08/23 09:24:15;;;;;;;1321.38;98.70;;;24.40;99.90;;;;;;5086572;28;20043;-76
2022/08/23 09:26:41;;;;;;;1018.55;77.55;;;24.50;99.90;;;;;;5067855;28;20048;-76
2022/08/23 09:29:24;;;;;;;108.78;8.43;;;24.60;99.90;;;;;;5066197;28;20055;-76
2022/08/23 09:31:53;;;;;;;1171.88;93.45;;;24.60;99.90;;;;;;5089833;28;20052;-75
2022/08/23 09:34:38;;;;;;;1179.65;99.95;;;24.70;99.90;;;;;;5066526;28;20047;-76
2022/08/23 09:37:08;;;;;;;674.72;46.17;;;24.90;99.90;;;;;;5088587;28;20059;-78
2022/08/23 09:39:37;;;;;;;212.98;13.77;;;24.90;99.90;;;;;;5091068;28;20177;-77
2022/08/23 09:42:03;;;;;;;76.35;6.15;;;25.00;99.90;;;;;;5071221;28;20044;-77
2022/08/23 09:44:38;;;;;;;69.72;5.68;;;25.10;99.90;;;;;;5067835;28;20047;-76
2022/08/23 09:47:11;;;;;;;486.90;37.63;;;25.10;99.90;;;;;;5081862;28;20043;-77
2022/08/23 09:49:40;;;;;;;20.65;3.88;;;25.10;99.90;;;;;;5068439;28;20438;-75
2022/08/23 09:52:20;;;;;;;271.02;17.20;;;25.20;99.90;;;;;;5078616;28;20040;-75
2022/08/23 09:54:56;;;;;;;210.25;14.80;;;25.40;99.90;;;;;;5086706;28;20039;-75
2022/08/23 09:57:29;;;;;;;234.93;17.80;;;25.60;99.90;;;;;;5072199;28;20622;-75
2022/08/23 10:00:00;;;;;;;40.88;5.43;;;25.70;99.90;;;;;;5085922;28;20042;-75
2022/08/23 10:02:33;;;;;;;10.30;3.35;;;25.80;99.90;;;;;;5086175;28;20101;-74
2022/08/23 10:05:16;;;;;;;7.40;2.75;;;25.80;99.90;;;;;;5071251;28;20375;-75
2022/08/23 10:07:57;;;;;;;5.35;2.78;;;26.00;99.90;;;;;;5070954;28;20486;-74
2022/08/23 10:10:35;;;;;;;8.85;2.70;;;26.10;99.90;;;;;;5073925;28;20383;-75
2022/08/23 10:13:04;;;;;;;4.35;2.00;;;26.30;99.90;;;;;;5070954;28;20059;-75
2022/08/23 10:16:01;;;;;;;9.32;2.70;;;26.40;99.90;;;;;;5082517;28;20043;-75
2022/08/23 10:18:33;;;;;;;7.28;2.22;;;26.50;99.90;;;;;;5081135;28;20055;-75
2022/08/23 10:21:29;;;;;;;7.38;2.30;;;26.80;99.90;;;;;;5055859;28;20135;-75
2022/08/23 10:24:03;;;;;;;7.00;2.70;;;27.00;99.90;;;;;;5084654;28;20155;-76
2022/08/23 10:30:20;;;;;;;6.05;2.33;;;27.30;99.90;;;;;;4982414;28;20049;-74
2022/08/23 10:33:13;;;;;;;12.85;2.50;;;27.60;99.90;;;;;;4988386;28;20060;-75
2022/08/23 10:36:00;;;;;;;12.85;3.08;;;27.80;99.90;;;;;;4972747;28;20053;-75
2022/08/23 10:38:37;;;;;;;9.27;2.80;;;27.70;99.00;;;;;;4990029;28;20137;-75
2022/08/23 10:41:34;;;;;;;8.77;2.63;;;27.90;99.60;;;;;;4991385;28;20133;-75
2022/08/23 10:44:07;;;;;;;16.20;3.20;;;28.10;99.90;;;;;;4968638;28;20527;-75
2022/08/23 10:46:40;;;;;;;9.90;2.67;;;28.30;99.50;;;;;;4984052;28;20057;-75
2022/08/23 10:49:09;;;;;;;13.45;3.10;;;28.50;99.90;;;;;;4984640;28;20196;-75
2022/08/23 10:51:43;;;;;;;8.55;2.47;;;28.70;99.80;;;;;;4971122;28;20060;-75
2022/08/23 10:54:14;;;;;;;7.95;2.72;;;28.80;99.40;;;;;;4989450;28;20057;-75
2022/08/23 10:56:41;;;;;;;10.10;2.40;;;29.00;99.40;;;;;;5004615;28;20135;-74
2022/08/23 10:59:13;;;;;;;8.80;2.80;;;29.10;99.50;;;;;;4990031;28;20046;-75
2022/08/23 11:01:49;;;;;;;7.50;2.65;;;29.30;99.40;;;;;;5081690;28;20050;-75
2022/08/23 11:04:33;;;;;;;10.88;3.25;;;29.40;99.20;;;;;;5062584;28;20043;-75
2022/08/23 11:07:25;;;;;;;5.45;2.17;;;29.60;99.50;;;;;;5067540;28;20102;-75
2022/08/23 11:10:12;;;;;;;5.43;2.30;;;29.80;98.80;;;;;;5084220;28;20074;-76
2022/08/23 11:13:12;;;;;;;6.85;2.30;;;29.60;98.70;;;;;;5066981;27;20090;-75
2022/08/23 11:15:57;;;;;;;8.15;2.50;;;29.90;98.70;;;;;;5084301;28;20189;-76
2022/08/23 11:18:41;;;;;;;6.35;2.28;;;30.00;98.40;;;;;;5063584;28;20452;-75
2022/08/23 11:21:16;;;;;;;10.02;2.60;;;29.90;97.70;;;;;;5065236;28;20101;-76
2022/08/23 11:23:53;;;;;;;11.45;2.78;;;29.90;97.10;;;;;;5085937;28;20085;-75
2022/08/23 11:26:21;;;;;;;8.77;2.38;;;30.00;97.50;;;;;;5060937;28;20031;-76
2022/08/23 11:28:51;;;;;;;6.40;2.65;;;30.10;97.70;;;;;;5089788;28;20046;-75
2022/08/23 11:31:22;;;;;;;11.43;2.88;;;30.30;97.80;;;;;;5083910;28;20490;-75
2022/08/23 11:33:51;;;;;;;9.50;2.88;;;30.50;97.50;;;;;;5087258;28;20054;-74
2022/08/23 11:36:22;;;;;;;5.57;2.03;;;30.40;97.30;;;;;;5075555;28;20043;-74
2022/08/23 11:38:48;;;;;;;11.40;2.50;;;30.60;97.20;;;;;;5092430;28;20119;-75
2022/08/23 11:41:35;;;;;;;5.20;2.20;;;30.80;97.20;;;;;;5091828;28;20110;-74
2022/08/23 11:44:00;;;;;;;7.57;2.15;;;30.80;96.50;;;;;;5090835;28;20055;-74
2022/08/23 11:46:26;;;;;;;7.22;2.30;;;31.10;97.10;;;;;;5074753;28;20048;-74
2022/08/23 11:49:10;;;;;;;6.57;2.30;;;31.50;96.70;;;;;;5086062;28;20461;-75
2022/08/23 11:51:35;;;;;;;;;;;31.60;96.00;;;;;;5092206;28;20134;-74
2022/08/23 11:54:34;;;;;;;5.32;2.22;;;31.70;95.70;;;;;;5074959;28;20002;-75
2022/08/23 11:57:18;;;;;;;5.38;2.20;;;31.30;95.00;;;;;;5090871;28;20040;-75
2022/08/23 12:00:00;;;;;;;;;;;31.00;94.10;;;;;;5092299;28;20046;-75
2022/08/23 12:02:37;;;;;;;8.02;2.30;;;31.30;95.30;;;;;;5089557;28;19973;-74
2022/08/23 12:05:21;;;;;;;6.20;2.10;;;31.70;95.10;;;;;;5108899;28;20042;-74
2022/08/23 12:08:16;;;;;;;6.97;2.05;;;31.70;94.20;;;;;;5092428;28;20083;-74
2022/08/23 12:10:45;;;;;;;7.68;2.10;;;31.50;93.30;;;;;;5071910;28;20451;-74
2022/08/23 12:13:20;;;;;;;7.85;2.20;;;31.60;93.50;;;;;;5089227;28;20071;-74
2022/08/23 12:16:13;;;;;;;6.22;1.98;;;31.60;92.90;;;;;;5072304;28;20055;-75
2022/08/23 12:18:48;;;;;;;7.15;2.10;;;31.70;93.30;;;;;;5091212;28;20460;-75
2022/08/23 12:21:22;;;;;;;4.55;1.90;;;32.00;92.90;;;;;;5089918;28;20122;-76
2022/08/23 12:23:51;;;;;;;5.57;2.22;;;32.10;92.90;;;;;;5054896;28;20044;-75
2022/08/23 12:26:57;;;;;;;9.57;2.03;;;32.20;92.40;;;;;;5089904;28;20058;-75
2022/08/23 12:29:44;;;;;;;6.60;2.50;;;32.30;92.20;;;;;;5073687;28;20036;-75
2022/08/23 12:32:10;;;;;;;10.20;2.20;;;31.70;91.40;;;;;;5070496;28;20048;-75
2022/08/23 12:35:01;;;;;;;7.50;2.40;;;31.80;92.10;;;;;;5081748;28;20044;-75
2022/08/23 12:37:52;;;;;;;8.70;2.25;;;31.80;92.10;;;;;;5071531;28;20378;-75
2022/08/23 12:40:28;;;;;;;9.88;2.30;;;31.60;92.30;;;;;;5103401;28;20059;-74
2022/08/23 12:43:09;;;;;;;5.50;2.38;;;31.50;92.30;;;;;;5085568;28;20043;-75
2022/08/23 12:45:41;;;;;;;4.72;2.05;;;31.30;92.00;;;;;;5070112;28;20197;-74
2022/08/23 12:48:09;;;;;;;8.48;2.15;;;31.40;91.90;;;;;;5084150;28;20050;-74
2022/08/23 12:50:42;;;;;;;10.02;2.17;;;31.30;92.50;;;;;;5087825;28;20370;-74
2022/08/23 12:53:14;;;;;;;6.53;2.63;;;31.40;91.90;;;;;;5085417;28;20064;-74
2022/08/23 12:55:44;;;;;;;6.72;2.20;;;31.40;91.90;;;;;;5068111;28;20070;-74
2022/08/23 12:58:11;;;;;;;7.10;1.90;;;31.40;91.80;;;;;;5069850;28;20067;-75
2022/08/23 13:00:51;;;;;;;6.65;2.33;;;31.30;91.80;;;;;;5071340;28;20086;-75
2022/08/23 13:03:24;;;;;;;4.68;1.90;;;31.30;91.30;;;;;;5089127;27;20046;-74
2022/08/23 13:05:59;;;;;;;6.55;2.03;;;31.30;91.50;;;;;;5071024;28;20040;-74
2022/08/23 13:08:38;;;;;;;10.15;2.00;;;31.30;91.30;;;;;;5073042;28;20120;-74
2022/08/23 13:11:05;;;;;;;5.50;2.20;;;31.40;91.20;;;;;;5090568;28;20058;-73
2022/08/23 13:13:36;;;;;;;6.97;2.30;;;31.60;91.20;;;;;;5073539;28;20370;-74
2022/08/23 13:16:30;;;;;;;6.13;2.08;;;31.70;91.20;;;;;;5094282;28;20491;-74